sensor_id;sensor_type;location;lat;lon;timestamp;pressure;altitude;pressure_sealevel;temperature;humidity
7962;BME280;4026;43.652;24.906;2022-11-09T00:00:32;99823.47;;;10.74;100.00
7962;BME280;4026;43.652;24.906;2022-11-09T00:02:59;99826.00;;;10.74;100.00
7962;BME280;4026;43.652;24.906;2022-11-09T00:05:26;99819.44;;;10.70;100.00
7962;BME280;4026;43.652;24.906;2022-11-09T00:07:54;99828.22;;;10.65;100.00
7962;BME280;4026;43.652;24.906;2022-11-09T00:10:21;99819.63;;;10.67;100.00
7962;BME280;4026;43.652;24.906;2022-11-09T00:12:47;99823.09;;;10.65;100.00
7962;BME280;4026;43.652;24.906;2022-11-09T00:15:14;99814.88;;;10.60;100.00
7962;BME280;4026;43.652;24.906;2022-11-09T00:17:41;99820.38;;;10.54;100.00
7962;BME280;4026;43.652;24.906;2022-11-09T00:20:09;99821.38;;;10.52;100.00
7962;BME280;4026;43.652;24.906;2022-11-09T00:22:36;99814.88;;;10.60;100.00
7962;BME280;4026;43.652;24.906;2022-11-09T00:25:06;99821.63;;;10.61;100.00
7962;BME280;4026;43.652;24.906;2022-11-09T00:27:33;99825.84;;;10.62;100.00
7962;BME280;4026;43.652;24.906;2022-11-09T00:30:00;99819.19;;;10.60;100.00
7962;BME280;4026;43.652;24.906;2022-11-09T00:32:26;99816.69;;;10.58;100.00
7962;BME280;4026;43.652;24.906;2022-11-09T00:34:53;99823.84;;;10.53;100.00
7962;BME280;4026;43.652;24.906;2022-11-09T00:37:20;99815.25;;;10.54;100.00
7962;BME280;4026;43.652;24.906;2022-11-09T00:39:47;99818.72;;;10.53;100.00
7962;BME280;4026;43.652;24.906;2022-11-09T00:42:15;99818.72;;;10.53;100.00
7962;BME280;4026;43.652;24.906;2022-11-09T00:44:42;99817.25;;;10.49;100.00
7962;BME280;4026;43.652;24.906;2022-11-09T00:47:08;99817.06;;;10.52;100.00
7962;BME280;4026;43.652;24.906;2022-11-09T00:49:35;99817.06;;;10.52;100.00
7962;BME280;4026;43.652;24.906;2022-11-09T00:52:02;99819.09;;;10.47;100.00
7962;BME280;4026;43.652;24.906;2022-11-09T00:54:29;99818.38;;;10.45;100.00
7962;BME280;4026;43.652;24.906;2022-11-09T00:56:56;99812.06;;;10.36;100.00
7962;BME280;4026;43.652;24.906;2022-11-09T00:59:24;99813.06;;;10.34;100.00
7962;BME280;4026;43.652;24.906;2022-11-09T01:01:50;99815.44;;;10.37;100.00
7962;BME280;4026;43.652;24.906;2022-11-09T01:04:17;99812.25;;;10.33;100.00
7962;BME280;4026;43.652;24.906;2022-11-09T01:06:44;99809.97;;;10.29;100.00
7962;BME280;4026;43.652;24.906;2022-11-09T01:09:11;99820.00;;;10.32;99.90
7962;BME280;4026;43.652;24.906;2022-11-09T01:11:38;99808.97;;;10.31;99.41
7962;BME280;4026;43.652;24.906;2022-11-09T01:14:04;99814.88;;;10.32;98.83
7962;BME280;4026;43.652;24.906;2022-11-09T01:16:33;99809.97;;;10.29;98.86
7962;BME280;4026;43.652;24.906;2022-11-09T01:18:59;99809.13;;;10.28;98.20
7962;BME280;4026;43.652;24.906;2022-11-09T01:21:26;99813.59;;;10.25;98.06
7962;BME280;4026;43.652;24.906;2022-11-09T01:23:54;99808.19;;;10.15;97.76
7962;BME280;4026;43.652;24.906;2022-11-09T01:26:21;99814.00;;;10.03;98.27
7962;BME280;4026;43.652;24.906;2022-11-09T01:28:47;99815.75;;;10.02;97.95
7962;BME280;4026;43.652;24.906;2022-11-09T01:31:16;99820.13;;;10.00;97.37
7962;BME280;4026;43.652;24.906;2022-11-09T01:33:45;99821.41;;;9.93;97.08
7962;BME280;4026;43.652;24.906;2022-11-09T01:36:15;99824.66;;;9.81;97.21
7962;BME280;4026;43.652;24.906;2022-11-09T01:38:42;99818.16;;;9.75;97.88
7962;BME280;4026;43.652;24.906;2022-11-09T01:41:12;99823.91;;;9.79;98.00
7962;BME280;4026;43.652;24.906;2022-11-09T01:43:39;99815.31;;;9.65;98.46
7962;BME280;4026;43.652;24.906;2022-11-09T01:46:14;99821.91;;;9.69;100.00
7962;BME280;4026;43.652;24.906;2022-11-09T01:48:46;99817.13;;;9.63;100.00
7962;BME280;4026;43.652;24.906;2022-11-09T01:51:23;99820.22;;;9.68;100.00
7962;BME280;4026;43.652;24.906;2022-11-09T01:53:54;99811.50;;;9.72;100.00
7962;BME280;4026;43.652;24.906;2022-11-09T01:56:25;99815.50;;;9.77;100.00
7962;BME280;4026;43.652;24.906;2022-11-09T01:58:54;99814.81;;;9.74;100.00
7962;BME280;4026;43.652;24.906;2022-11-09T02:01:23;99818.06;;;9.77;100.00
7962;BME280;4026;43.652;24.906;2022-11-09T02:03:53;99813.66;;;9.64;100.00
7962;BME280;4026;43.652;24.906;2022-11-09T02:06:22;99818.13;;;9.61;100.00
7962;BME280;4026;43.652;24.906;2022-11-09T02:08:53;99819.13;;;9.58;100.00
7962;BME280;4026;43.652;24.906;2022-11-09T02:11:22;99820.59;;;9.62;100.00
7962;BME280;4026;43.652;24.906;2022-11-09T02:13:54;99824.06;;;9.61;100.00
7962;BME280;4026;43.652;24.906;2022-11-09T02:16:22;99824.06;;;9.61;100.00
7962;BME280;4026;43.652;24.906;2022-11-09T02:18:52;99825.34;;;9.68;100.00
7962;BME280;4026;43.652;24.906;2022-11-09T02:21:21;99820.91;;;9.72;100.00
7962;BME280;4026;43.652;24.906;2022-11-09T02:23:49;99829.16;;;9.61;100.00
7962;BME280;4026;43.652;24.906;2022-11-09T02:26:18;99825.16;;;9.57;100.00
7962;BME280;4026;43.652;24.906;2022-11-09T02:28:47;99836.34;;;9.55;100.00
7962;BME280;4026;43.652;24.906;2022-11-09T02:31:15;99830.09;;;9.44;100.00
7962;BME280;4026;43.652;24.906;2022-11-09T02:33:51;99828.00;;;9.51;100.00
7962;BME280;4026;43.652;24.906;2022-11-09T02:36:20;99828.94;;;9.50;100.00
7962;BME280;4026;43.652;24.906;2022-11-09T02:38:47;99824.19;;;9.44;100.00
7962;BME280;4026;43.652;24.906;2022-11-09T02:41:15;99828.13;;;9.34;100.00
7962;BME280;4026;43.652;24.906;2022-11-09T02:43:42;99834.31;;;9.29;100.00
7962;BME280;4026;43.652;24.906;2022-11-09T02:46:08;99835.97;;;9.30;100.00
7962;BME280;4026;43.652;24.906;2022-11-09T02:48:35;99839.91;;;9.36;100.00
7962;BME280;4026;43.652;24.906;2022-11-09T02:51:02;99837.34;;;9.36;100.00
7962;BME280;4026;43.652;24.906;2022-11-09T02:53:30;99836.47;;;9.37;100.00
7962;BME280;4026;43.652;24.906;2022-11-09T02:55:57;99834.16;;;9.33;100.00
7962;BME280;4026;43.652;24.906;2022-11-09T02:58:24;99840.69;;;9.22;100.00
7962;BME280;4026;43.652;24.906;2022-11-09T03:00:50;99827.25;;;9.19;100.00
7962;BME280;4026;43.652;24.906;2022-11-09T03:03:17;99829.56;;;9.23;100.00
7962;BME280;4026;43.652;24.906;2022-11-09T03:05:44;99836.13;;;9.27;100.00
7962;BME280;4026;43.652;24.906;2022-11-09T03:08:11;99834.50;;;9.26;100.00
7962;BME280;4026;43.652;24.906;2022-11-09T03:10:39;99834.72;;;9.22;100.00
7962;BME280;4026;43.652;24.906;2022-11-09T03:13:06;99835.47;;;9.24;100.00
7962;BME280;4026;43.652;24.906;2022-11-09T03:15:32;99834.66;;;9.23;100.00
7962;BME280;4026;43.652;24.906;2022-11-09T03:17:59;99836.28;;;9.24;100.00
7962;BME280;4026;43.652;24.906;2022-11-09T03:20:26;99833.84;;;9.23;100.00
7962;BME280;4026;43.652;24.906;2022-11-09T03:22:56;99832.19;;;9.22;100.00
7962;BME280;4026;43.652;24.906;2022-11-09T03:25:23;99837.03;;;9.26;100.00
7962;BME280;4026;43.652;24.906;2022-11-09T03:27:56;99838.84;;;9.24;100.00
7962;BME280;4026;43.652;24.906;2022-11-09T03:30:23;99837.22;;;9.23;100.00
7962;BME280;4026;43.652;24.906;2022-11-09T03:32:49;99834.66;;;9.23;100.00
7962;BME280;4026;43.652;24.906;2022-11-09T03:35:16;99840.69;;;9.22;100.00
7962;BME280;4026;43.652;24.906;2022-11-09T03:37:43;99838.13;;;9.22;100.00
7962;BME280;4026;43.652;24.906;2022-11-09T03:40:11;99834.66;;;9.23;100.00
7962;BME280;4026;43.652;24.906;2022-11-09T03:42:42;99844.69;;;9.26;100.00
7962;BME280;4026;43.652;24.906;2022-11-09T03:45:11;99838.78;;;9.26;100.00
7962;BME280;4026;43.652;24.906;2022-11-09T03:47:39;99836.81;;;9.15;100.00
7962;BME280;4026;43.652;24.906;2022-11-09T03:50:07;99848.22;;;9.24;100.00
7962;BME280;4026;43.652;24.906;2022-11-09T03:52:35;99847.25;;;9.26;100.00
7962;BME280;4026;43.652;24.906;2022-11-09T03:55:02;99845.28;;;9.32;100.00
7962;BME280;4026;43.652;24.906;2022-11-09T03:57:30;99843.84;;;9.42;100.00
7962;BME280;4026;43.652;24.906;2022-11-09T03:59:57;99838.41;;;9.48;100.00
7962;BME280;4026;43.652;24.906;2022-11-09T04:02:25;99847.16;;;9.44;100.00
7962;BME280;4026;43.652;24.906;2022-11-09T04:04:52;99846.63;;;9.53;100.00
7962;BME280;4026;43.652;24.906;2022-11-09T04:07:18;99846.47;;;9.56;100.00
7962;BME280;4026;43.652;24.906;2022-11-09T04:09:45;99841.69;;;9.50;100.00
7962;BME280;4026;43.652;24.906;2022-11-09T04:12:12;99840.47;;;9.57;100.00
7962;BME280;4026;43.652;24.906;2022-11-09T04:14:39;99843.13;;;9.70;100.00
7962;BME280;4026;43.652;24.906;2022-11-09T04:17:05;99841.88;;;9.77;100.00
7962;BME280;4026;43.652;24.906;2022-11-09T04:19:34;99844.53;;;9.75;100.00
7962;BME280;4026;43.652;24.906;2022-11-09T04:22:01;99842.44;;;9.82;100.00
7962;BME280;4026;43.652;24.906;2022-11-09T04:24:27;99843.44;;;9.80;100.00
7962;BME280;4026;43.652;24.906;2022-11-09T04:26:54;99843.25;;;9.83;100.00
7962;BME280;4026;43.652;24.906;2022-11-09T04:29:21;99842.56;;;9.95;100.00
7962;BME280;4026;43.652;24.906;2022-11-09T04:31:48;99837.75;;;10.05;100.00
7962;BME280;4026;43.652;24.906;2022-11-09T04:34:16;99844.97;;;10.12;100.00
7962;BME280;4026;43.652;24.906;2022-11-09T04:36:44;99834.56;;;10.15;100.00
7962;BME280;4026;43.652;24.906;2022-11-09T04:39:11;99846.06;;;10.23;100.00
7962;BME280;4026;43.652;24.906;2022-11-09T04:41:38;99847.69;;;10.24;100.00
7962;BME280;4026;43.652;24.906;2022-11-09T04:44:05;99843.63;;;10.21;100.00
7962;BME280;4026;43.652;24.906;2022-11-09T04:46:32;99847.88;;;10.20;100.00
7962;BME280;4026;43.652;24.906;2022-11-09T04:48:58;99846.00;;;10.24;100.00
7962;BME280;4026;43.652;24.906;2022-11-09T04:51:25;99838.06;;;10.29;100.00
7962;BME280;4026;43.652;24.906;2022-11-09T04:53:54;99842.25;;;10.44;100.00
7962;BME280;4026;43.652;24.906;2022-11-09T04:56:21;99845.75;;;10.57;100.00
7962;BME280;4026;43.652;24.906;2022-11-09T04:58:48;99850.69;;;10.60;100.00
7962;BME280;4026;43.652;24.906;2022-11-09T05:01:14;99853.03;;;10.63;100.00
7962;BME280;4026;43.652;24.906;2022-11-09T05:03:41;99851.31;;;10.64;99.98
7962;BME280;4026;43.652;24.906;2022-11-09T05:06:08;99857.09;;;10.68;99.91
7962;BME280;4026;43.652;24.906;2022-11-09T05:08:49;99861.09;;;10.72;99.65
7962;BME280;4026;43.652;24.906;2022-11-09T05:11:18;99864.81;;;10.66;99.51
7962;BME280;4026;43.652;24.906;2022-11-09T05:13:45;99861.09;;;10.72;99.11
7962;BME280;4026;43.652;24.906;2022-11-09T05:16:12;99866.00;;;10.75;99.06
7962;BME280;4026;43.652;24.906;2022-11-09T05:18:39;99863.91;;;10.67;98.67
7962;BME280;4026;43.652;24.906;2022-11-09T05:21:05;99879.91;;;10.71;98.82
7962;BME280;4026;43.652;24.906;2022-11-09T05:23:32;99868.13;;;10.68;98.58
7962;BME280;4026;43.652;24.906;2022-11-09T05:26:34;99870.38;;;10.73;98.38
7962;BME280;4026;43.652;24.906;2022-11-09T05:29:03;99873.75;;;10.73;98.20
7962;BME280;4026;43.652;24.906;2022-11-09T05:31:30;99873.88;;;10.72;98.07
7962;BME280;4026;43.652;24.906;2022-11-09T05:33:57;99876.31;;;10.73;98.07
7962;BME280;4026;43.652;24.906;2022-11-09T05:36:25;99882.91;;;10.77;97.94
7962;BME280;4026;43.652;24.906;2022-11-09T05:38:52;99885.75;;;10.73;98.19
7962;BME280;4026;43.652;24.906;2022-11-09T05:41:19;99883.72;;;10.78;97.65
7962;BME280;4026;43.652;24.906;2022-11-09T05:43:48;99888.84;;;10.78;97.08
7962;BME280;4026;43.652;24.906;2022-11-09T05:46:15;99890.84;;;10.73;97.43
7962;BME280;4026;43.652;24.906;2022-11-09T05:48:43;99893.59;;;10.70;97.91
7962;BME280;4026;43.652;24.906;2022-11-09T05:51:11;99890.16;;;10.71;98.32
7962;BME280;4026;43.652;24.906;2022-11-09T05:53:39;99904.38;;;10.75;97.69
7962;BME280;4026;43.652;24.906;2022-11-09T05:56:07;99899.06;;;10.78;97.57
7962;BME280;4026;43.652;24.906;2022-11-09T05:58:35;99899.72;;;10.81;97.85
7962;BME280;4026;43.652;24.906;2022-11-09T06:01:05;99905.13;;;10.91;98.01
7962;BME280;4026;43.652;24.906;2022-11-09T06:03:32;99908.66;;;11.03;97.41
7962;BME280;4026;43.652;24.906;2022-11-09T06:06:00;99903.72;;;11.00;97.12
7962;BME280;4026;43.652;24.906;2022-11-09T06:08:27;99904.78;;;11.10;96.84
7962;BME280;4026;43.652;24.906;2022-11-09T06:10:58;99910.53;;;11.28;96.56
7962;BME280;4026;43.652;24.906;2022-11-09T06:13:25;99908.78;;;11.28;96.29
7962;BME280;4026;43.652;24.906;2022-11-09T06:15:53;99905.56;;;11.39;96.29
7962;BME280;4026;43.652;24.906;2022-11-09T06:18:22;99908.47;;;11.47;96.28
7962;BME280;4026;43.652;24.906;2022-11-09T06:20:51;99916.50;;;11.55;96.04
7962;BME280;4026;43.652;24.906;2022-11-09T06:23:18;99910.59;;;11.68;95.59
7962;BME280;4026;43.652;24.906;2022-11-09T06:25:50;99912.53;;;11.91;94.28
7962;BME280;4026;43.652;24.906;2022-11-09T06:28:17;99914.63;;;12.12;93.68
7962;BME280;4026;43.652;24.906;2022-11-09T06:30:43;99912.28;;;12.34;92.31
7962;BME280;4026;43.652;24.906;2022-11-09T06:33:10;99918.56;;;12.68;90.54
7962;BME280;4026;43.652;24.906;2022-11-09T06:35:38;99923.16;;;12.89;88.84
7962;BME280;4026;43.652;24.906;2022-11-09T06:38:05;99922.19;;;13.03;88.51
7962;BME280;4026;43.652;24.906;2022-11-09T06:40:32;99923.84;;;13.41;87.02
7962;BME280;4026;43.652;24.906;2022-11-09T06:43:00;99925.88;;;13.72;86.14
7962;BME280;4026;43.652;24.906;2022-11-09T06:45:28;99931.88;;;14.08;84.88
7962;BME280;4026;43.652;24.906;2022-11-09T06:47:55;99928.53;;;14.30;83.92
7962;BME280;4026;43.652;24.906;2022-11-09T06:50:22;99930.13;;;14.66;81.46
7962;BME280;4026;43.652;24.906;2022-11-09T06:52:54;99925.22;;;14.97;79.34
7962;BME280;4026;43.652;24.906;2022-11-09T06:55:21;99931.41;;;15.17;78.99
7962;BME280;4026;43.652;24.906;2022-11-09T06:57:48;99928.72;;;15.19;78.22
7962;BME280;4026;43.652;24.906;2022-11-09T07:00:16;99932.41;;;15.37;78.22
7962;BME280;4026;43.652;24.906;2022-11-09T07:02:42;99932.13;;;15.62;77.58
7962;BME280;4026;43.652;24.906;2022-11-09T07:05:09;99932.28;;;15.82;76.88
7962;BME280;4026;43.652;24.906;2022-11-09T07:07:36;99932.78;;;15.76;75.72
7962;BME280;4026;43.652;24.906;2022-11-09T07:10:05;99933.81;;;16.05;76.30
7962;BME280;4026;43.652;24.906;2022-11-09T07:12:32;99937.75;;;16.21;75.26
7962;BME280;4026;43.652;24.906;2022-11-09T07:14:59;99939.31;;;16.33;73.81
7962;BME280;4026;43.652;24.906;2022-11-09T07:17:28;99943.41;;;16.15;73.45
7962;BME280;4026;43.652;24.906;2022-11-09T07:19:55;99938.81;;;16.18;74.14
7962;BME280;4026;43.652;24.906;2022-11-09T07:22:22;99937.09;;;16.07;73.77
7962;BME280;4026;43.652;24.906;2022-11-09T07:24:49;99942.59;;;15.82;74.21
7962;BME280;4026;43.652;24.906;2022-11-09T07:27:17;99935.50;;;15.74;75.47
7962;BME280;4026;43.652;24.906;2022-11-09T07:29:44;99933.28;;;15.70;74.95
7962;BME280;4026;43.652;24.906;2022-11-09T07:32:10;99935.38;;;15.65;75.41
7962;BME280;4026;43.652;24.906;2022-11-09T07:34:37;99940.38;;;15.45;76.70
7962;BME280;4026;43.652;24.906;2022-11-09T07:37:04;99938.00;;;15.53;76.57
7962;BME280;4026;43.652;24.906;2022-11-09T07:39:31;99934.53;;;15.32;76.40
7962;BME280;4026;43.652;24.906;2022-11-09T07:41:58;99935.22;;;15.34;77.63
7962;BME280;4026;43.652;24.906;2022-11-09T07:44:26;99941.03;;;15.47;76.48
7962;BME280;4026;43.652;24.906;2022-11-09T07:46:53;99937.91;;;15.44;77.11
7962;BME280;4026;43.652;24.906;2022-11-09T07:49:20;99944.25;;;15.39;77.21
7962;BME280;4026;43.652;24.906;2022-11-09T07:51:46;99945.34;;;15.58;76.64
7962;BME280;4026;43.652;24.906;2022-11-09T07:54:13;99939.34;;;15.80;77.60
7962;BME280;4026;43.652;24.906;2022-11-09T07:56:40;99940.69;;;16.37;75.28
7962;BME280;4026;43.652;24.906;2022-11-09T07:59:07;99945.00;;;17.19;72.26
7962;BME280;4026;43.652;24.906;2022-11-09T08:01:35;99952.16;;;17.56;69.41
7962;BME280;4026;43.652;24.906;2022-11-09T08:04:02;99955.66;;;17.35;67.81
7962;BME280;4026;43.652;24.906;2022-11-09T08:06:30;99947.81;;;17.06;69.69
7962;BME280;4026;43.652;24.906;2022-11-09T08:08:57;99951.34;;;16.74;69.83
7962;BME280;4026;43.652;24.906;2022-11-09T08:11:25;99947.47;;;16.59;70.98
7962;BME280;4026;43.652;24.906;2022-11-09T08:13:52;99953.22;;;16.21;71.27
7962;BME280;4026;43.652;24.906;2022-11-09T08:16:18;99952.97;;;16.24;73.09
7962;BME280;4026;43.652;24.906;2022-11-09T08:18:48;99955.31;;;16.58;71.35
7962;BME280;4026;43.652;24.906;2022-11-09T08:21:14;99954.22;;;16.50;70.21
7962;BME280;4026;43.652;24.906;2022-11-09T08:23:41;99961.38;;;16.68;70.29
7962;BME280;4026;43.652;24.906;2022-11-09T08:26:09;99953.34;;;16.40;70.68
7962;BME280;4026;43.652;24.906;2022-11-09T08:28:36;99958.16;;;16.75;71.36
7962;BME280;4026;43.652;24.906;2022-11-09T08:31:06;99947.25;;;17.43;68.00
7962;BME280;4026;43.652;24.906;2022-11-09T08:33:35;99960.63;;;17.97;66.36
7962;BME280;4026;43.652;24.906;2022-11-09T08:36:09;99958.00;;;18.45;64.23
7962;BME280;4026;43.652;24.906;2022-11-09T08:38:36;99956.81;;;19.14;62.70
7962;BME280;4026;43.652;24.906;2022-11-09T08:41:04;99950.38;;;19.36;59.14
7962;BME280;4026;43.652;24.906;2022-11-09T08:43:30;99956.97;;;19.76;60.17
7962;BME280;4026;43.652;24.906;2022-11-09T08:45:57;99953.25;;;19.97;59.05
7962;BME280;4026;43.652;24.906;2022-11-09T08:48:24;99954.06;;;19.97;55.69
7962;BME280;4026;43.652;24.906;2022-11-09T08:50:52;99950.88;;;19.85;57.89
7962;BME280;4026;43.652;24.906;2022-11-09T08:53:21;99946.19;;;19.89;58.67
7962;BME280;4026;43.652;24.906;2022-11-09T08:55:47;99953.59;;;20.46;56.86
7962;BME280;4026;43.652;24.906;2022-11-09T08:58:14;99950.53;;;20.76;55.24
7962;BME280;4026;43.652;24.906;2022-11-09T09:00:41;99939.94;;;20.70;54.45
7962;BME280;4026;43.652;24.906;2022-11-09T09:03:08;99948.56;;;21.13;53.47
7962;BME280;4026;43.652;24.906;2022-11-09T09:05:35;99943.56;;;21.28;52.12
7962;BME280;4026;43.652;24.906;2022-11-09T09:08:03;99940.06;;;21.02;53.89
7962;BME280;4026;43.652;24.906;2022-11-09T09:10:32;99941.19;;;21.42;52.55
7962;BME280;4026;43.652;24.906;2022-11-09T09:13:01;99938.13;;;21.47;51.73
7962;BME280;4026;43.652;24.906;2022-11-09T09:15:27;99935.34;;;21.48;51.90
7962;BME280;4026;43.652;24.906;2022-11-09T09:17:54;99935.59;;;21.29;52.61
7962;BME280;4026;43.652;24.906;2022-11-09T09:20:21;99926.59;;;20.65;54.84
7962;BME280;4026;43.652;24.906;2022-11-09T09:22:48;99930.38;;;21.13;54.22
7962;BME280;4026;43.652;24.906;2022-11-09T09:25:15;99925.94;;;21.72;53.71
7962;BME280;4026;43.652;24.906;2022-11-09T09:27:43;99936.03;;;22.08;52.19
7962;BME280;4026;43.652;24.906;2022-11-09T09:30:11;99933.09;;;22.27;50.47
7962;BME280;4026;43.652;24.906;2022-11-09T09:32:38;99925.25;;;22.44;49.76
7962;BME280;4026;43.652;24.906;2022-11-09T09:35:05;99928.88;;;22.26;49.66
7962;BME280;4026;43.652;24.906;2022-11-09T09:37:32;99924.94;;;22.14;51.45
7962;BME280;4026;43.652;24.906;2022-11-09T09:39:59;99930.94;;;22.47;49.62
7962;BME280;4026;43.652;24.906;2022-11-09T09:42:30;99923.56;;;22.59;49.48
7962;BME280;4026;43.652;24.906;2022-11-09T09:45:01;99925.25;;;22.44;48.99
7962;BME280;4026;43.652;24.906;2022-11-09T09:47:43;99920.38;;;22.80;48.81
7962;BME280;4026;43.652;24.906;2022-11-09T09:50:13;99920.94;;;22.67;49.34
7962;BME280;4026;43.652;24.906;2022-11-09T09:52:45;99921.59;;;22.61;48.55
7962;BME280;4026;43.652;24.906;2022-11-09T09:55:18;99908.94;;;22.50;48.98
7962;BME280;4026;43.652;24.906;2022-11-09T09:57:50;99912.06;;;22.12;49.62
7962;BME280;4026;43.652;24.906;2022-11-09T10:00:22;99916.78;;;22.33;50.29
7962;BME280;4026;43.652;24.906;2022-11-09T10:02:50;99908.69;;;22.28;49.58
7962;BME280;4026;43.652;24.906;2022-11-09T10:05:18;99904.72;;;22.41;49.74
7962;BME280;4026;43.652;24.906;2022-11-09T10:07:50;99909.34;;;22.70;49.37
7962;BME280;4026;43.652;24.906;2022-11-09T10:10:30;99898.44;;;23.05;48.05
7962;BME280;4026;43.652;24.906;2022-11-09T10:16:06;99908.59;;;22.53;48.52
7962;BME280;4026;43.652;24.906;2022-11-09T10:18:44;99904.25;;;22.37;49.74
7962;BME280;4026;43.652;24.906;2022-11-09T10:21:26;99897.41;;;22.36;48.90
7962;BME280;4026;43.652;24.906;2022-11-09T10:24:10;99899.72;;;22.06;49.14
7962;BME280;4026;43.652;24.906;2022-11-09T10:26:42;99892.28;;;21.70;49.68
7962;BME280;4026;43.652;24.906;2022-11-09T10:29:22;99888.16;;;22.01;49.75
7962;BME280;4026;43.652;24.906;2022-11-09T10:31:54;99893.69;;;22.14;48.10
7962;BME280;4026;43.652;24.906;2022-11-09T10:34:27;99879.41;;;21.61;49.61
7962;BME280;4026;43.652;24.906;2022-11-09T10:37:02;99879.56;;;21.84;49.03
7962;BME280;4026;43.652;24.906;2022-11-09T10:39:38;99881.31;;;22.24;48.16
7962;BME280;4026;43.652;24.906;2022-11-09T10:42:09;99879.47;;;22.49;47.09
7962;BME280;4026;43.652;24.906;2022-11-09T10:44:36;99871.56;;;22.26;47.73
7962;BME280;4026;43.652;24.906;2022-11-09T10:47:07;99871.13;;;21.74;47.80
7962;BME280;4026;43.652;24.906;2022-11-09T10:49:34;99871.03;;;21.08;50.48
7962;BME280;4026;43.652;24.906;2022-11-09T10:52:02;99860.56;;;21.51;49.24
7962;BME280;4026;43.652;24.906;2022-11-09T10:54:30;99857.63;;;21.45;49.31
7962;BME280;4026;43.652;24.906;2022-11-09T10:57:09;99866.34;;;21.28;48.35
7962;BME280;4026;43.652;24.906;2022-11-09T10:59:45;99853.06;;;21.39;48.88
7962;BME280;4026;43.652;24.906;2022-11-09T11:02:40;99862.84;;;21.62;48.98
7962;BME280;4026;43.652;24.906;2022-11-09T11:05:25;99857.97;;;21.59;49.33
7962;BME280;4026;43.652;24.906;2022-11-09T11:07:53;99855.66;;;21.72;48.20
7962;BME280;4026;43.652;24.906;2022-11-09T11:10:21;99848.16;;;21.93;47.57
7962;BME280;4026;43.652;24.906;2022-11-09T11:15:39;99847.22;;;21.62;47.74
7962;BME280;4026;43.652;24.906;2022-11-09T11:18:15;99845.56;;;21.61;48.17
7962;BME280;4026;43.652;24.906;2022-11-09T11:20:42;99844.72;;;21.93;47.05
7962;BME280;4026;43.652;24.906;2022-11-09T11:23:11;99838.56;;;21.69;48.19
7962;BME280;4026;43.652;24.906;2022-11-09T11:26:01;99833.53;;;21.35;48.78
7962;BME280;4026;43.652;24.906;2022-11-09T11:28:33;99837.75;;;21.69;47.76
7962;BME280;4026;43.652;24.906;2022-11-09T11:31:08;99839.22;;;21.80;47.71
7962;BME280;4026;43.652;24.906;2022-11-09T11:33:38;99833.88;;;21.73;47.64
7962;BME280;4026;43.652;24.906;2022-11-09T11:36:11;99838.88;;;21.91;47.23
7962;BME280;4026;43.652;24.906;2022-11-09T11:38:47;99837.41;;;21.88;46.89
7962;BME280;4026;43.652;24.906;2022-11-09T11:41:50;99839.69;;;21.83;46.86
7962;BME280;4026;43.652;24.906;2022-11-09T11:44:43;99838.41;;;21.63;46.64
7962;BME280;4026;43.652;24.906;2022-11-09T11:47:17;99834.81;;;21.23;47.51
7962;BME280;4026;43.652;24.906;2022-11-09T11:50:02;99831.06;;;21.17;48.69
7962;BME280;4026;43.652;24.906;2022-11-09T11:52:43;99828.31;;;21.27;48.44
7962;BME280;4026;43.652;24.906;2022-11-09T11:55:24;99825.09;;;21.41;48.65
7962;BME280;4026;43.652;24.906;2022-11-09T11:58:03;99826.06;;;21.48;48.21
7962;BME280;4026;43.652;24.906;2022-11-09T12:00:40;99829.19;;;21.44;48.21
7962;BME280;4026;43.652;24.906;2022-11-09T12:03:32;99827.16;;;21.13;48.15
7962;BME280;4026;43.652;24.906;2022-11-09T12:09:37;99826.97;;;20.98;48.71
7962;BME280;4026;43.652;24.906;2022-11-09T12:12:18;99819.13;;;20.66;49.18
7962;BME280;4026;43.652;24.906;2022-11-09T12:14:57;99811.94;;;20.68;49.08
7962;BME280;4026;43.652;24.906;2022-11-09T12:17:33;99819.78;;;20.76;49.49
7962;BME280;4026;43.652;24.906;2022-11-09T12:20:27;99811.22;;;21.08;48.66
7962;BME280;4026;43.652;24.906;2022-11-09T12:23:20;99807.44;;;20.78;49.10
7962;BME280;4026;43.652;24.906;2022-11-09T12:26:01;99811.84;;;20.77;49.39
7962;BME280;4026;43.652;24.906;2022-11-09T12:28:46;99813.56;;;20.61;49.65
7962;BME280;4026;43.652;24.906;2022-11-09T12:31:25;99808.22;;;20.70;49.46
7962;BME280;4026;43.652;24.906;2022-11-09T12:33:59;99808.25;;;20.78;49.04
7962;BME280;4026;43.652;24.906;2022-11-09T12:36:33;99807.38;;;20.62;48.82
7962;BME280;4026;43.652;24.906;2022-11-09T12:39:06;99799.91;;;20.58;49.70
7962;BME280;4026;43.652;24.906;2022-11-09T12:41:37;99798.97;;;20.60;49.44
7962;BME280;4026;43.652;24.906;2022-11-09T12:44:10;99796.94;;;20.45;49.79
7962;BME280;4026;43.652;24.906;2022-11-09T12:46:42;99808.19;;;20.20;50.13
7962;BME280;4026;43.652;24.906;2022-11-09T12:49:24;99790.44;;;19.81;51.40
7962;BME280;4026;43.652;24.906;2022-11-09T12:51:55;99791.72;;;19.77;50.90
7962;BME280;4026;43.652;24.906;2022-11-09T12:54:24;99791.81;;;19.93;50.77
7962;BME280;4026;43.652;24.906;2022-11-09T12:56:54;99786.31;;;19.96;50.30
7962;BME280;4026;43.652;24.906;2022-11-09T12:59:36;99790.84;;;19.94;50.75
7962;BME280;4026;43.652;24.906;2022-11-09T13:02:20;99783.38;;;19.91;50.33
7962;BME280;4026;43.652;24.906;2022-11-09T13:04:54;99784.28;;;19.82;51.05
7962;BME280;4026;43.652;24.906;2022-11-09T13:07:45;99786.22;;;19.80;50.82
7962;BME280;4026;43.652;24.906;2022-11-09T13:10:27;99777.75;;;19.70;51.22
7962;BME280;4026;43.652;24.906;2022-11-09T13:13:03;99785.25;;;19.63;51.65
7962;BME280;4026;43.652;24.906;2022-11-09T13:15:31;99791.16;;;19.47;51.32
7962;BME280;4026;43.652;24.906;2022-11-09T13:18:02;99785.84;;;19.31;51.90
7962;BME280;4026;43.652;24.906;2022-11-09T13:20:43;99790.91;;;19.14;52.17
7962;BME280;4026;43.652;24.906;2022-11-09T13:23:31;99782.28;;;18.96;53.00
7962;BME280;4026;43.652;24.906;2022-11-09T13:26:02;99782.16;;;18.80;52.96
7962;BME280;4026;43.652;24.906;2022-11-09T13:31:59;99782.44;;;18.49;54.38
7962;BME280;4026;43.652;24.906;2022-11-09T13:34:40;99779.09;;;18.39;54.20
7962;BME280;4026;43.652;24.906;2022-11-09T13:40:39;99782.91;;;18.07;55.66